sensor_id;sensor_type;location;lat;lon;timestamp;P1;durP1;ratioP1;P2;durP2;ratioP2
13122;SDS011;6627;50.920;12.050;2023-01-16T00:00:36;3.40;;;1.50;;
13122;SDS011;6627;50.920;12.050;2023-01-16T00:03:03;3.10;;;1.20;;
13122;SDS011;6627;50.920;12.050;2023-01-16T00:05:31;4.73;;;1.70;;
13122;SDS011;6627;50.920;12.050;2023-01-16T00:07:58;3.37;;;1.30;;
13122;SDS011;6627;50.920;12.050;2023-01-16T00:10:25;2.73;;;1.30;;
13122;SDS011;6627;50.920;12.050;2023-01-16T00:12:52;3.27;;;1.53;;
13122;SDS011;6627;50.920;12.050;2023-01-16T00:15:20;3.53;;;1.50;;
13122;SDS011;6627;50.920;12.050;2023-01-16T00:17:49;5.37;;;1.47;;
13122;SDS011;6627;50.920;12.050;2023-01-16T00:20:17;3.87;;;1.23;;
13122;SDS011;6627;50.920;12.050;2023-01-16T00:22:46;3.87;;;1.50;;
13122;SDS011;6627;50.920;12.050;2023-01-16T00:25:13;4.63;;;1.27;;
13122;SDS011;6627;50.920;12.050;2023-01-16T00:27:40;5.93;;;1.93;;
13122;SDS011;6627;50.920;12.050;2023-01-16T00:30:08;3.97;;;1.30;;
13122;SDS011;6627;50.920;12.050;2023-01-16T00:32:36;5.53;;;1.47;;
13122;SDS011;6627;50.920;12.050;2023-01-16T00:35:05;6.87;;;1.30;;
13122;SDS011;6627;50.920;12.050;2023-01-16T00:37:33;2.63;;;1.63;;
13122;SDS011;6627;50.920;12.050;2023-01-16T00:40:01;4.83;;;1.50;;
13122;SDS011;6627;50.920;12.050;2023-01-16T00:42:28;3.20;;;1.43;;
13122;SDS011;6627;50.920;12.050;2023-01-16T00:44:55;2.00;;;1.10;;
13122;SDS011;6627;50.920;12.050;2023-01-16T00:47:23;1.93;;;1.17;;
13122;SDS011;6627;50.920;12.050;2023-01-16T00:49:50;5.00;;;1.27;;
13122;SDS011;6627;50.920;12.050;2023-01-16T00:52:18;2.00;;;1.30;;
13122;SDS011;6627;50.920;12.050;2023-01-16T00:54:46;5.07;;;1.33;;
13122;SDS011;6627;50.920;12.050;2023-01-16T00:57:13;3.87;;;1.60;;
13122;SDS011;6627;50.920;12.050;2023-01-16T00:59:40;2.93;;;1.37;;
13122;SDS011;6627;50.920;12.050;2023-01-16T01:02:07;4.30;;;1.47;;
13122;SDS011;6627;50.920;12.050;2023-01-16T01:04:35;2.60;;;1.27;;
13122;SDS011;6627;50.920;12.050;2023-01-16T01:07:03;4.00;;;1.37;;
13122;SDS011;6627;50.920;12.050;2023-01-16T01:09:33;3.80;;;1.40;;
13122;SDS011;6627;50.920;12.050;2023-01-16T01:12:00;1.90;;;1.10;;
13122;SDS011;6627;50.920;12.050;2023-01-16T01:14:27;3.57;;;1.43;;
13122;SDS011;6627;50.920;12.050;2023-01-16T01:16:54;3.23;;;1.33;;
13122;SDS011;6627;50.920;12.050;2023-01-16T01:19:22;4.13;;;1.83;;
13122;SDS011;6627;50.920;12.050;2023-01-16T01:21:49;2.07;;;1.00;;
13122;SDS011;6627;50.920;12.050;2023-01-16T01:24:17;3.43;;;1.23;;
13122;SDS011;6627;50.920;12.050;2023-01-16T01:26:45;3.00;;;1.00;;
13122;SDS011;6627;50.920;12.050;2023-01-16T01:29:12;8.27;;;1.40;;
13122;SDS011;6627;50.920;12.050;2023-01-16T01:31:40;3.47;;;1.27;;
13122;SDS011;6627;50.920;12.050;2023-01-16T01:34:07;4.00;;;1.37;;
13122;SDS011;6627;50.920;12.050;2023-01-16T01:36:34;4.53;;;1.40;;
13122;SDS011;6627;50.920;12.050;2023-01-16T01:39:02;2.63;;;1.30;;
13122;SDS011;6627;50.920;12.050;2023-01-16T01:41:29;1.83;;;1.30;;
13122;SDS011;6627;50.920;12.050;2023-01-16T01:43:58;3.83;;;1.33;;
13122;SDS011;6627;50.920;12.050;2023-01-16T01:46:26;2.80;;;1.30;;
13122;SDS011;6627;50.920;12.050;2023-01-16T01:49:02;5.07;;;1.47;;
13122;SDS011;6627;50.920;12.050;2023-01-16T01:51:34;4.43;;;1.40;;
13122;SDS011;6627;50.920;12.050;2023-01-16T01:54:08;4.33;;;1.47;;
13122;SDS011;6627;50.920;12.050;2023-01-16T01:56:41;2.37;;;1.10;;
13122;SDS011;6627;50.920;12.050;2023-01-16T01:59:16;3.40;;;1.40;;
13122;SDS011;6627;50.920;12.050;2023-01-16T02:01:51;3.90;;;1.67;;
13122;SDS011;6627;50.920;12.050;2023-01-16T02:04:21;3.83;;;1.20;;
13122;SDS011;6627;50.920;12.050;2023-01-16T02:06:55;2.80;;;1.30;;
13122;SDS011;6627;50.920;12.050;2023-01-16T02:09:26;3.03;;;1.60;;
13122;SDS011;6627;50.920;12.050;2023-01-16T02:11:55;2.57;;;1.23;;
13122;SDS011;6627;50.920;12.050;2023-01-16T02:14:27;2.83;;;1.40;;
13122;SDS011;6627;50.920;12.050;2023-01-16T02:17:00;2.70;;;1.20;;
13122;SDS011;6627;50.920;12.050;2023-01-16T02:19:50;4.17;;;1.40;;
13122;SDS011;6627;50.920;12.050;2023-01-16T02:26:12;5.63;;;1.30;;
13122;SDS011;6627;50.920;12.050;2023-01-16T02:29:13;3.50;;;1.20;;
13122;SDS011;6627;50.920;12.050;2023-01-16T02:32:05;4.70;;;1.30;;
13122;SDS011;6627;50.920;12.050;2023-01-16T02:34:56;4.03;;;1.83;;
13122;SDS011;6627;50.920;12.050;2023-01-16T02:37:43;3.97;;;1.40;;
13122;SDS011;6627;50.920;12.050;2023-01-16T02:40:19;4.03;;;1.60;;
13122;SDS011;6627;50.920;12.050;2023-01-16T02:43:04;3.60;;;1.40;;
13122;SDS011;6627;50.920;12.050;2023-01-16T02:45:46;5.70;;;1.70;;
13122;SDS011;6627;50.920;12.050;2023-01-16T02:48:27;5.13;;;1.30;;
13122;SDS011;6627;50.920;12.050;2023-01-16T02:51:03;7.53;;;1.50;;
13122;SDS011;6627;50.920;12.050;2023-01-16T02:53:45;2.87;;;1.20;;
13122;SDS011;6627;50.920;12.050;2023-01-16T02:56:25;1.37;;;1.00;;
13122;SDS011;6627;50.920;12.050;2023-01-16T02:59:01;3.43;;;1.47;;
13122;SDS011;6627;50.920;12.050;2023-01-16T03:01:28;4.00;;;1.27;;
13122;SDS011;6627;50.920;12.050;2023-01-16T03:04:04;3.70;;;1.33;;
13122;SDS011;6627;50.920;12.050;2023-01-16T03:07:06;4.30;;;1.30;;
13122;SDS011;6627;50.920;12.050;2023-01-16T03:10:04;5.00;;;1.50;;
13122;SDS011;6627;50.920;12.050;2023-01-16T03:12:51;5.10;;;1.63;;
13122;SDS011;6627;50.920;12.050;2023-01-16T03:15:34;2.53;;;1.40;;
13122;SDS011;6627;50.920;12.050;2023-01-16T03:18:27;2.60;;;1.13;;
13122;SDS011;6627;50.920;12.050;2023-01-16T03:21:08;2.73;;;1.20;;
13122;SDS011;6627;50.920;12.050;2023-01-16T03:23:50;2.33;;;1.30;;
13122;SDS011;6627;50.920;12.050;2023-01-16T03:26:23;3.03;;;1.27;;
13122;SDS011;6627;50.920;12.050;2023-01-16T03:29:02;3.43;;;1.10;;
13122;SDS011;6627;50.920;12.050;2023-01-16T03:31:40;3.27;;;1.20;;
13122;SDS011;6627;50.920;12.050;2023-01-16T03:34:17;4.73;;;1.90;;
13122;SDS011;6627;50.920;12.050;2023-01-16T03:36:56;3.67;;;1.50;;
13122;SDS011;6627;50.920;12.050;2023-01-16T03:39:48;5.87;;;1.30;;
13122;SDS011;6627;50.920;12.050;2023-01-16T03:42:23;4.00;;;1.47;;
13122;SDS011;6627;50.920;12.050;2023-01-16T03:45:00;7.77;;;1.90;;
13122;SDS011;6627;50.920;12.050;2023-01-16T03:47:36;3.17;;;1.43;;
13122;SDS011;6627;50.920;12.050;2023-01-16T03:50:13;5.70;;;1.97;;
13122;SDS011;6627;50.920;12.050;2023-01-16T03:52:50;12.90;;;2.10;;
13122;SDS011;6627;50.920;12.050;2023-01-16T03:55:26;3.10;;;1.50;;
13122;SDS011;6627;50.920;12.050;2023-01-16T03:58:02;5.23;;;1.40;;
13122;SDS011;6627;50.920;12.050;2023-01-16T04:00:36;3.47;;;1.30;;
13122;SDS011;6627;50.920;12.050;2023-01-16T04:03:15;2.77;;;1.37;;
13122;SDS011;6627;50.920;12.050;2023-01-16T04:05:52;2.37;;;1.27;;
13122;SDS011;6627;50.920;12.050;2023-01-16T04:08:33;2.77;;;1.50;;
13122;SDS011;6627;50.920;12.050;2023-01-16T04:11:05;5.60;;;1.87;;
13122;SDS011;6627;50.920;12.050;2023-01-16T04:13:34;2.20;;;1.53;;
13122;SDS011;6627;50.920;12.050;2023-01-16T04:16:07;2.07;;;1.20;;
13122;SDS011;6627;50.920;12.050;2023-01-16T04:18:39;5.70;;;1.60;;
13122;SDS011;6627;50.920;12.050;2023-01-16T04:21:07;4.33;;;1.40;;
13122;SDS011;6627;50.920;12.050;2023-01-16T04:23:36;3.23;;;1.33;;
13122;SDS011;6627;50.920;12.050;2023-01-16T04:26:04;4.20;;;1.53;;
13122;SDS011;6627;50.920;12.050;2023-01-16T04:28:31;3.63;;;1.60;;
13122;SDS011;6627;50.920;12.050;2023-01-16T04:30:58;6.27;;;2.03;;
13122;SDS011;6627;50.920;12.050;2023-01-16T04:33:25;2.30;;;1.30;;
13122;SDS011;6627;50.920;12.050;2023-01-16T04:35:53;3.97;;;1.20;;
13122;SDS011;6627;50.920;12.050;2023-01-16T04:38:21;3.70;;;1.30;;
13122;SDS011;6627;50.920;12.050;2023-01-16T04:40:52;5.97;;;1.87;;
13122;SDS011;6627;50.920;12.050;2023-01-16T04:43:20;4.03;;;1.70;;
13122;SDS011;6627;50.920;12.050;2023-01-16T04:45:48;3.10;;;1.40;;
13122;SDS011;6627;50.920;12.050;2023-01-16T04:48:15;5.83;;;1.37;;
13122;SDS011;6627;50.920;12.050;2023-01-16T04:50:43;5.33;;;1.40;;
13122;SDS011;6627;50.920;12.050;2023-01-16T04:53:14;3.73;;;1.50;;
13122;SDS011;6627;50.920;12.050;2023-01-16T04:55:42;2.47;;;1.50;;
13122;SDS011;6627;50.920;12.050;2023-01-16T04:58:12;4.13;;;1.33;;
13122;SDS011;6627;50.920;12.050;2023-01-16T05:00:39;4.33;;;1.47;;
13122;SDS011;6627;50.920;12.050;2023-01-16T05:03:07;4.70;;;1.40;;
13122;SDS011;6627;50.920;12.050;2023-01-16T05:05:34;5.33;;;1.20;;
13122;SDS011;6627;50.920;12.050;2023-01-16T05:08:04;2.57;;;1.50;;
13122;SDS011;6627;50.920;12.050;2023-01-16T05:10:43;5.00;;;1.40;;
13122;SDS011;6627;50.920;12.050;2023-01-16T05:13:12;3.87;;;1.53;;
13122;SDS011;6627;50.920;12.050;2023-01-16T05:15:41;3.67;;;1.67;;
13122;SDS011;6627;50.920;12.050;2023-01-16T05:18:09;4.77;;;2.00;;
13122;SDS011;6627;50.920;12.050;2023-01-16T05:20:37;2.33;;;1.43;;
13122;SDS011;6627;50.920;12.050;2023-01-16T05:23:05;6.17;;;1.87;;
13122;SDS011;6627;50.920;12.050;2023-01-16T05:25:33;6.90;;;1.70;;
13122;SDS011;6627;50.920;12.050;2023-01-16T05:28:00;4.57;;;1.87;;
13122;SDS011;6627;50.920;12.050;2023-01-16T05:30:29;5.13;;;1.90;;
13122;SDS011;6627;50.920;12.050;2023-01-16T05:32:56;4.83;;;1.60;;
13122;SDS011;6627;50.920;12.050;2023-01-16T05:35:24;2.53;;;1.53;;
13122;SDS011;6627;50.920;12.050;2023-01-16T05:37:51;3.87;;;1.40;;
13122;SDS011;6627;50.920;12.050;2023-01-16T05:40:19;3.23;;;1.23;;
13122;SDS011;6627;50.920;12.050;2023-01-16T05:42:46;5.37;;;1.47;;
13122;SDS011;6627;50.920;12.050;2023-01-16T05:45:14;5.33;;;1.60;;
13122;SDS011;6627;50.920;12.050;2023-01-16T05:47:43;4.80;;;1.30;;
13122;SDS011;6627;50.920;12.050;2023-01-16T05:50:10;9.07;;;1.57;;
13122;SDS011;6627;50.920;12.050;2023-01-16T05:52:37;3.73;;;1.33;;
13122;SDS011;6627;50.920;12.050;2023-01-16T05:55:05;2.87;;;1.30;;
13122;SDS011;6627;50.920;12.050;2023-01-16T05:57:33;6.63;;;1.40;;
13122;SDS011;6627;50.920;12.050;2023-01-16T06:00:00;2.53;;;1.30;;
13122;SDS011;6627;50.920;12.050;2023-01-16T06:02:28;3.70;;;1.37;;
13122;SDS011;6627;50.920;12.050;2023-01-16T06:04:56;3.67;;;1.50;;
13122;SDS011;6627;50.920;12.050;2023-01-16T06:07:25;5.80;;;1.40;;
13122;SDS011;6627;50.920;12.050;2023-01-16T06:09:52;5.27;;;1.40;;
13122;SDS011;6627;50.920;12.050;2023-01-16T06:12:20;6.20;;;1.80;;
13122;SDS011;6627;50.920;12.050;2023-01-16T06:14:47;3.90;;;1.50;;
13122;SDS011;6627;50.920;12.050;2023-01-16T06:17:14;2.50;;;1.43;;
13122;SDS011;6627;50.920;12.050;2023-01-16T06:19:42;5.33;;;1.80;;
13122;SDS011;6627;50.920;12.050;2023-01-16T06:22:11;3.77;;;1.33;;
13122;SDS011;6627;50.920;12.050;2023-01-16T06:24:39;6.23;;;1.97;;
13122;SDS011;6627;50.920;12.050;2023-01-16T06:27:06;8.33;;;2.07;;
13122;SDS011;6627;50.920;12.050;2023-01-16T06:29:34;5.23;;;1.97;;
13122;SDS011;6627;50.920;12.050;2023-01-16T06:32:04;4.80;;;1.50;;
13122;SDS011;6627;50.920;12.050;2023-01-16T06:34:31;3.33;;;1.53;;
13122;SDS011;6627;50.920;12.050;2023-01-16T06:36:58;4.33;;;1.40;;
13122;SDS011;6627;50.920;12.050;2023-01-16T06:39:27;2.83;;;1.37;;
13122;SDS011;6627;50.920;12.050;2023-01-16T06:41:54;5.80;;;1.60;;
13122;SDS011;6627;50.920;12.050;2023-01-16T06:44:21;3.07;;;1.40;;
13122;SDS011;6627;50.920;12.050;2023-01-16T06:46:48;8.93;;;2.90;;
13122;SDS011;6627;50.920;12.050;2023-01-16T06:49:16;9.50;;;3.90;;
13122;SDS011;6627;50.920;12.050;2023-01-16T06:51:43;7.07;;;3.67;;
13122;SDS011;6627;50.920;12.050;2023-01-16T06:54:10;9.17;;;4.43;;
13122;SDS011;6627;50.920;12.050;2023-01-16T06:56:39;7.83;;;3.07;;
13122;SDS011;6627;50.920;12.050;2023-01-16T06:59:07;8.10;;;3.63;;
13122;SDS011;6627;50.920;12.050;2023-01-16T07:01:34;9.73;;;3.60;;
13122;SDS011;6627;50.920;12.050;2023-01-16T07:04:02;6.67;;;3.40;;
13122;SDS011;6627;50.920;12.050;2023-01-16T07:06:29;9.67;;;4.50;;
13122;SDS011;6627;50.920;12.050;2023-01-16T07:08:56;9.47;;;3.50;;
13122;SDS011;6627;50.920;12.050;2023-01-16T07:11:24;12.43;;;5.40;;
13122;SDS011;6627;50.920;12.050;2023-01-16T07:13:53;8.00;;;3.60;;
13122;SDS011;6627;50.920;12.050;2023-01-16T07:16:45;13.43;;;5.47;;
13122;SDS011;6627;50.920;12.050;2023-01-16T07:19:30;7.00;;;3.30;;
13122;SDS011;6627;50.920;12.050;2023-01-16T07:22:15;7.17;;;3.50;;
13122;SDS011;6627;50.920;12.050;2023-01-16T07:25:06;7.07;;;2.20;;
13122;SDS011;6627;50.920;12.050;2023-01-16T07:27:38;3.27;;;2.03;;
13122;SDS011;6627;50.920;12.050;2023-01-16T07:30:10;7.13;;;2.20;;
13122;SDS011;6627;50.920;12.050;2023-01-16T07:32:38;5.70;;;2.23;;
13122;SDS011;6627;50.920;12.050;2023-01-16T07:35:06;7.23;;;2.20;;
13122;SDS011;6627;50.920;12.050;2023-01-16T07:37:34;4.03;;;2.17;;
13122;SDS011;6627;50.920;12.050;2023-01-16T07:40:01;4.30;;;2.40;;
13122;SDS011;6627;50.920;12.050;2023-01-16T07:42:29;5.07;;;2.07;;
13122;SDS011;6627;50.920;12.050;2023-01-16T07:44:57;5.33;;;2.20;;
13122;SDS011;6627;50.920;12.050;2023-01-16T07:47:25;5.57;;;2.70;;
13122;SDS011;6627;50.920;12.050;2023-01-16T07:49:52;4.27;;;2.20;;
13122;SDS011;6627;50.920;12.050;2023-01-16T07:52:22;3.47;;;1.93;;
13122;SDS011;6627;50.920;12.050;2023-01-16T07:54:49;7.93;;;3.87;;
13122;SDS011;6627;50.920;12.050;2023-01-16T07:57:16;5.27;;;2.37;;
13122;SDS011;6627;50.920;12.050;2023-01-16T07:59:44;7.70;;;3.33;;
13122;SDS011;6627;50.920;12.050;2023-01-16T08:02:11;6.93;;;2.73;;
13122;SDS011;6627;50.920;12.050;2023-01-16T08:04:40;4.10;;;2.20;;
13122;SDS011;6627;50.920;12.050;2023-01-16T08:07:07;4.70;;;2.30;;
13122;SDS011;6627;50.920;12.050;2023-01-16T08:09:35;7.33;;;2.27;;
13122;SDS011;6627;50.920;12.050;2023-01-16T08:12:02;3.03;;;2.20;;
13122;SDS011;6627;50.920;12.050;2023-01-16T08:14:30;3.97;;;2.07;;
13122;SDS011;6627;50.920;12.050;2023-01-16T08:16:57;2.83;;;1.70;;
13122;SDS011;6627;50.920;12.050;2023-01-16T08:19:24;3.20;;;1.67;;
13122;SDS011;6627;50.920;12.050;2023-01-16T08:21:53;4.47;;;2.40;;
13122;SDS011;6627;50.920;12.050;2023-01-16T08:24:20;7.60;;;1.90;;
13122;SDS011;6627;50.920;12.050;2023-01-16T08:26:49;5.03;;;1.67;;
13122;SDS011;6627;50.920;12.050;2023-01-16T08:29:16;4.90;;;2.30;;
13122;SDS011;6627;50.920;12.050;2023-01-16T08:31:44;2.20;;;1.70;;
13122;SDS011;6627;50.920;12.050;2023-01-16T08:34:11;7.40;;;2.10;;
13122;SDS011;6627;50.920;12.050;2023-01-16T08:36:38;4.27;;;1.63;;
13122;SDS011;6627;50.920;12.050;2023-01-16T08:39:08;4.57;;;1.93;;
13122;SDS011;6627;50.920;12.050;2023-01-16T08:41:35;3.30;;;1.90;;
13122;SDS011;6627;50.920;12.050;2023-01-16T08:44:20;4.50;;;1.67;;
13122;SDS011;6627;50.920;12.050;2023-01-16T08:47:08;6.77;;;1.63;;
13122;SDS011;6627;50.920;12.050;2023-01-16T08:49:57;6.33;;;2.47;;
13122;SDS011;6627;50.920;12.050;2023-01-16T08:52:42;7.13;;;2.60;;
13122;SDS011;6627;50.920;12.050;2023-01-16T08:55:12;5.73;;;1.90;;
13122;SDS011;6627;50.920;12.050;2023-01-16T08:57:39;5.63;;;2.50;;
13122;SDS011;6627;50.920;12.050;2023-01-16T09:00:07;4.33;;;2.10;;
13122;SDS011;6627;50.920;12.050;2023-01-16T09:02:35;9.83;;;2.50;;
13122;SDS011;6627;50.920;12.050;2023-01-16T09:05:04;3.90;;;2.00;;
13122;SDS011;6627;50.920;12.050;2023-01-16T09:07:32;5.60;;;2.40;;
13122;SDS011;6627;50.920;12.050;2023-01-16T09:10:00;4.13;;;2.17;;
13122;SDS011;6627;50.920;12.050;2023-01-16T09:12:28;4.47;;;2.07;;
13122;SDS011;6627;50.920;12.050;2023-01-16T09:15:12;5.07;;;2.20;;
13122;SDS011;6627;50.920;12.050;2023-01-16T09:17:40;4.30;;;1.93;;
13122;SDS011;6627;50.920;12.050;2023-01-16T09:20:07;5.27;;;2.10;;
13122;SDS011;6627;50.920;12.050;2023-01-16T09:22:36;6.03;;;2.87;;
13122;SDS011;6627;50.920;12.050;2023-01-16T09:25:03;4.27;;;2.30;;
13122;SDS011;6627;50.920;12.050;2023-01-16T09:27:33;3.97;;;2.17;;
13122;SDS011;6627;50.920;12.050;2023-01-16T09:30:00;9.93;;;4.03;;
13122;SDS011;6627;50.920;12.050;2023-01-16T09:32:28;7.23;;;3.20;;
13122;SDS011;6627;50.920;12.050;2023-01-16T09:34:55;9.17;;;4.23;;
13122;SDS011;6627;50.920;12.050;2023-01-16T09:37:22;11.63;;;4.73;;
13122;SDS011;6627;50.920;12.050;2023-01-16T09:39:49;9.57;;;4.90;;
13122;SDS011;6627;50.920;12.050;2023-01-16T09:45:38;4.67;;;2.13;;
13122;SDS011;6627;50.920;12.050;2023-01-16T09:48:10;7.27;;;2.27;;
13122;SDS011;6627;50.920;12.050;2023-01-16T09:50:49;4.27;;;1.90;;
13122;SDS011;6627;50.920;12.050;2023-01-16T09:53:23;3.60;;;2.03;;
13122;SDS011;6627;50.920;12.050;2023-01-16T09:56:20;4.73;;;2.00;;
13122;SDS011;6627;50.920;12.050;2023-01-16T09:59:31;3.40;;;1.40;;
13122;SDS011;6627;50.920;12.050;2023-01-16T10:02:07;4.33;;;2.03;;
13122;SDS011;6627;50.920;12.050;2023-01-16T10:04:46;3.63;;;1.67;;
13122;SDS011;6627;50.920;12.050;2023-01-16T10:07:21;3.27;;;1.50;;
13122;SDS011;6627;50.920;12.050;2023-01-16T10:10:18;2.80;;;1.03;;
13122;SDS011;6627;50.920;12.050;2023-01-16T10:13:05;3.93;;;1.30;;
13122;SDS011;6627;50.920;12.050;2023-01-16T10:15:50;3.83;;;1.70;;
13122;SDS011;6627;50.920;12.050;2023-01-16T10:18:34;4.03;;;1.50;;
13122;SDS011;6627;50.920;12.050;2023-01-16T10:21:26;2.73;;;1.40;;
13122;SDS011;6627;50.920;12.050;2023-01-16T10:24:10;3.63;;;1.80;;
13122;SDS011;6627;50.920;12.050;2023-01-16T10:26:48;4.20;;;1.60;;
13122;SDS011;6627;50.920;12.050;2023-01-16T10:29:25;4.20;;;1.80;;
13122;SDS011;6627;50.920;12.050;2023-01-16T10:32:02;2.93;;;1.70;;
13122;SDS011;6627;50.920;12.050;2023-01-16T10:34:39;3.63;;;1.77;;
13122;SDS011;6627;50.920;12.050;2023-01-16T10:37:18;4.47;;;1.40;;
13122;SDS011;6627;50.920;12.050;2023-01-16T10:39:47;5.23;;;2.17;;
13122;SDS011;6627;50.920;12.050;2023-01-16T10:42:17;5.73;;;1.90;;
13122;SDS011;6627;50.920;12.050;2023-01-16T10:45:17;5.17;;;2.57;;
13122;SDS011;6627;50.920;12.050;2023-01-16T10:48:09;4.60;;;2.40;;
13122;SDS011;6627;50.920;12.050;2023-01-16T10:50:58;3.30;;;2.10;;
13122;SDS011;6627;50.920;12.050;2023-01-16T10:53:27;3.80;;;1.63;;
13122;SDS011;6627;50.920;12.050;2023-01-16T10:55:55;10.10;;;3.63;;
13122;SDS011;6627;50.920;12.050;2023-01-16T10:58:24;3.67;;;2.10;;
13122;SDS011;6627;50.920;12.050;2023-01-16T11:00:56;4.50;;;1.73;;
13122;SDS011;6627;50.920;12.050;2023-01-16T11:03:33;3.50;;;1.33;;
13122;SDS011;6627;50.920;12.050;2023-01-16T11:06:07;4.57;;;2.00;;
13122;SDS011;6627;50.920;12.050;2023-01-16T11:08:40;6.00;;;1.60;;
13122;SDS011;6627;50.920;12.050;2023-01-16T11:11:10;1.80;;;1.33;;
13122;SDS011;6627;50.920;12.050;2023-01-16T11:13:57;3.83;;;1.70;;
13122;SDS011;6627;50.920;12.050;2023-01-16T11:16:43;4.83;;;1.87;;
13122;SDS011;6627;50.920;12.050;2023-01-16T11:19:29;2.97;;;1.63;;
13122;SDS011;6627;50.920;12.050;2023-01-16T11:22:20;4.73;;;1.57;;
13122;SDS011;6627;50.920;12.050;2023-01-16T11:24:52;6.23;;;1.43;;
13122;SDS011;6627;50.920;12.050;2023-01-16T11:27:26;4.17;;;1.70;;
13122;SDS011;6627;50.920;12.050;2023-01-16T11:30:02;3.27;;;1.57;;
13122;SDS011;6627;50.920;12.050;2023-01-16T11:32:35;3.23;;;1.40;;
13122;SDS011;6627;50.920;12.050;2023-01-16T11:35:14;2.17;;;1.43;;
13122;SDS011;6627;50.920;12.050;2023-01-16T11:37:45;4.53;;;1.40;;
13122;SDS011;6627;50.920;12.050;2023-01-16T11:40:17;4.60;;;1.50;;
13122;SDS011;6627;50.920;12.050;2023-01-16T11:42:52;4.07;;;1.60;;
13122;SDS011;6627;50.920;12.050;2023-01-16T11:45:39;5.10;;;1.60;;
13122;SDS011;6627;50.920;12.050;2023-01-16T11:48:28;2.67;;;1.83;;
13122;SDS011;6627;50.920;12.050;2023-01-16T11:51:02;6.03;;;1.93;;
13122;SDS011;6627;50.920;12.050;2023-01-16T11:53:32;3.23;;;1.50;;
13122;SDS011;6627;50.920;12.050;2023-01-16T11:56:08;2.33;;;1.23;;
13122;SDS011;6627;50.920;12.050;2023-01-16T11:58:57;3.33;;;1.70;;
13122;SDS011;6627;50.920;12.050;2023-01-16T12:01:46;5.63;;;2.73;;
13122;SDS011;6627;50.920;12.050;2023-01-16T12:04:49;7.20;;;2.67;;
13122;SDS011;6627;50.920;12.050;2023-01-16T12:07:53;4.80;;;1.83;;
13122;SDS011;6627;50.920;12.050;2023-01-16T12:10:51;3.73;;;2.07;;
13122;SDS011;6627;50.920;12.050;2023-01-16T12:13:33;5.23;;;2.77;;
13122;SDS011;6627;50.920;12.050;2023-01-16T12:16:34;3.40;;;1.20;;
13122;SDS011;6627;50.920;12.050;2023-01-16T12:19:33;4.53;;;1.67;;
13122;SDS011;6627;50.920;12.050;2023-01-16T12:22:26;1.50;;;0.93;;
13122;SDS011;6627;50.920;12.050;2023-01-16T12:25:19;2.03;;;1.10;;
13122;SDS011;6627;50.920;12.050;2023-01-16T12:28:04;2.90;;;0.93;;
13122;SDS011;6627;50.920;12.050;2023-01-16T12:30:47;1.67;;;0.80;;
13122;SDS011;6627;50.920;12.050;2023-01-16T12:33:43;1.70;;;1.10;;
13122;SDS011;6627;50.920;12.050;2023-01-16T12:36:26;2.87;;;1.10;;
13122;SDS011;6627;50.920;12.050;2023-01-16T12:39:08;2.43;;;1.00;;
13122;SDS011;6627;50.920;12.050;2023-01-16T12:41:48;4.33;;;1.20;;
13122;SDS011;6627;50.920;12.050;2023-01-16T12:44:57;2.10;;;1.33;;
13122;SDS011;6627;50.920;12.050;2023-01-16T12:47:44;5.23;;;1.13;;
13122;SDS011;6627;50.920;12.050;2023-01-16T12:50:31;2.70;;;1.20;;
13122;SDS011;6627;50.920;12.050;2023-01-16T12:53:22;1.97;;;0.90;;
13122;SDS011;6627;50.920;12.050;2023-01-16T12:56:22;2.33;;;1.50;;
13122;SDS011;6627;50.920;12.050;2023-01-16T12:59:09;3.27;;;1.20;;
13122;SDS011;6627;50.920;12.050;2023-01-16T13:01:54;3.53;;;1.00;;
13122;SDS011;6627;50.920;12.050;2023-01-16T13:04:53;2.40;;;1.00;;
13122;SDS011;6627;50.920;12.050;2023-01-16T13:07:28;3.10;;;1.30;;
13122;SDS011;6627;50.920;12.050;2023-01-16T13:10:04;2.90;;;1.50;;
13122;SDS011;6627;50.920;12.050;2023-01-16T13:12:58;2.90;;;1.07;;
13122;SDS011;6627;50.920;12.050;2023-01-16T13:15:48;1.97;;;0.90;;
13122;SDS011;6627;50.920;12.050;2023-01-16T13:18:24;3.40;;;1.00;;
13122;SDS011;6627;50.920;12.050;2023-01-16T13:20:57;1.93;;;0.90;;
13122;SDS011;6627;50.920;12.050;2023-01-16T13:23:31;2.27;;;0.77;;
13122;SDS011;6627;50.920;12.050;2023-01-16T13:26:07;1.83;;;1.03;;
13122;SDS011;6627;50.920;12.050;2023-01-16T13:28:38;1.63;;;1.03;;
13122;SDS011;6627;50.920;12.050;2023-01-16T13:31:16;4.10;;;2.40;;
13122;SDS011;6627;50.920;12.050;2023-01-16T13:33:54;9.33;;;3.73;;
13122;SDS011;6627;50.920;12.050;2023-01-16T13:36:40;5.77;;;2.40;;
13122;SDS011;6627;50.920;12.050;2023-01-16T13:39:56;2.90;;;1.60;;
13122;SDS011;6627;50.920;12.050;2023-01-16T13:42:51;3.43;;;1.40;;
13122;SDS011;6627;50.920;12.050;2023-01-16T13:45:43;1.97;;;1.10;;
13122;SDS011;6627;50.920;12.050;2023-01-16T13:48:15;3.17;;;1.30;;
13122;SDS011;6627;50.920;12.050;2023-01-16T13:50:52;5.27;;;1.57;;
13122;SDS011;6627;50.920;12.050;2023-01-16T13:53:25;4.00;;;1.53;;
13122;SDS011;6627;50.920;12.050;2023-01-16T13:56:05;3.27;;;1.20;;
13122;SDS011;6627;50.920;12.050;2023-01-16T13:58:39;2.37;;;1.37;;
13122;SDS011;6627;50.920;12.050;2023-01-16T14:04:26;5.53;;;1.50;;
13122;SDS011;6627;50.920;12.050;2023-01-16T14:06:58;3.40;;;1.30;;
13122;SDS011;6627;50.920;12.050;2023-01-16T14:12:43;3.43;;;1.00;;
13122;SDS011;6627;50.920;12.050;2023-01-16T14:15:43;3.60;;;1.10;;
13122;SDS011;6627;50.920;12.050;2023-01-16T14:18:38;1.70;;;1.00;;
13122;SDS011;6627;50.920;12.050;2023-01-16T14:21:18;3.70;;;1.10;;
13122;SDS011;6627;50.920;12.050;2023-01-16T14:23:50;2.33;;;1.10;;
13122;SDS011;6627;50.920;12.050;2023-01-16T14:26:37;1.63;;;1.00;;
13122;SDS011;6627;50.920;12.050;2023-01-16T14:29:13;3.80;;;1.10;;
13122;SDS011;6627;50.920;12.050;2023-01-16T14:31:50;2.53;;;1.00;;
13122;SDS011;6627;50.920;12.050;2023-01-16T14:34:22;2.23;;;1.07;;
13122;SDS011;6627;50.920;12.050;2023-01-16T14:36:59;2.83;;;1.30;;
13122;SDS011;6627;50.920;12.050;2023-01-16T14:39:32;2.50;;;1.20;;
13122;SDS011;6627;50.920;12.050;2023-01-16T14:42:03;2.50;;;1.40;;
13122;SDS011;6627;50.920;12.050;2023-01-16T14:45:09;2.90;;;1.40;;
13122;SDS011;6627;50.920;12.050;2023-01-16T14:48:13;2.27;;;1.10;;
13122;SDS011;6627;50.920;12.050;2023-01-16T14:51:16;2.97;;;1.10;;
13122;SDS011;6627;50.920;12.050;2023-01-16T14:54:16;2.60;;;1.07;;
13122;SDS011;6627;50.920;12.050;2023-01-16T14:57:06;3.17;;;1.47;;
13122;SDS011;6627;50.920;12.050;2023-01-16T14:59:40;2.57;;;1.20;;
13122;SDS011;6627;50.920;12.050;2023-01-16T15:02:16;2.60;;;1.10;;
13122;SDS011;6627;50.920;12.050;2023-01-16T15:04:56;2.70;;;1.13;;
13122;SDS011;6627;50.920;12.050;2023-01-16T15:07:36;3.47;;;1.50;;
13122;SDS011;6627;50.920;12.050;2023-01-16T15:10:13;2.37;;;1.27;;
13122;SDS011;6627;50.920;12.050;2023-01-16T15:13:13;2.60;;;1.40;;
13122;SDS011;6627;50.920;12.050;2023-01-16T15:16:06;2.33;;;1.57;;
13122;SDS011;6627;50.920;12.050;2023-01-16T15:18:40;3.27;;;1.40;;
13122;SDS011;6627;50.920;12.050;2023-01-16T15:21:27;2.40;;;1.67;;
13122;SDS011;6627;50.920;12.050;2023-01-16T15:24:14;2.07;;;1.53;;
13122;SDS011;6627;50.920;12.050;2023-01-16T15:26:52;2.53;;;1.50;;
13122;SDS011;6627;50.920;12.050;2023-01-16T15:29:31;3.97;;;1.77;;
13122;SDS011;6627;50.920;12.050;2023-01-16T15:32:14;2.10;;;1.40;;
13122;SDS011;6627;50.920;12.050;2023-01-16T15:34:47;2.03;;;1.37;;
13122;SDS011;6627;50.920;12.050;2023-01-16T15:37:31;2.23;;;1.40;;
13122;SDS011;6627;50.920;12.050;2023-01-16T15:39:58;4.23;;;1.53;;
13122;SDS011;6627;50.920;12.050;2023-01-16T15:42:27;4.10;;;1.57;;
13122;SDS011;6627;50.920;12.050;2023-01-16T15:45:17;3.23;;;1.73;;
13122;SDS011;6627;50.920;12.050;2023-01-16T15:48:08;3.43;;;1.37;;
13122;SDS011;6627;50.920;12.050;2023-01-16T15:50:50;2.47;;;1.40;;